createdAt,value
2022-08-22T00:03:00.573Z,99122.22
2022-08-22T00:03:12.017Z,99126.03
2022-08-22T00:06:25.915Z,99159.16
2022-08-22T00:09:32.646Z,99161.53
2022-08-22T00:12:39.688Z,99154.84
2022-08-22T00:18:50.397Z,99163.84
2022-08-22T00:21:57.744Z,99161.97
2022-08-22T00:25:25.962Z,99147.50
2022-08-22T00:28:32.579Z,99153.53
2022-08-22T00:31:37.863Z,99148.19
2022-08-22T00:34:44.592Z,99153.88
2022-08-22T00:37:54.376Z,99156.25
2022-08-22T00:41:01.170Z,99162.22
2022-08-22T00:44:16.135Z,99166.22
2022-08-22T00:47:27.858Z,99172.41
2022-08-22T00:50:56.886Z,99170.28
2022-08-22T00:54:09.648Z,99170.34
2022-08-22T00:57:35.287Z,99162.03
2022-08-22T01:00:43.856Z,99167.69
2022-08-22T01:04:07.022Z,99173.59
2022-08-22T01:07:18.684Z,99176.28
2022-08-22T01:10:32.167Z,99158.28
2022-08-22T01:13:44.358Z,99161.97
2022-08-22T01:17:07.862Z,99167.69
2022-08-22T01:20:29.104Z,99174.53
2022-08-22T01:23:46.706Z,99176.13
2022-08-22T01:27:22.447Z,99176.66
2022-08-22T01:30:47.165Z,99186.31
2022-08-22T01:34:12.939Z,99182.81
2022-08-22T01:37:48.902Z,99178.09
2022-08-22T01:41:14.690Z,99161.41
2022-08-22T01:44:25.493Z,99178.09
2022-08-22T01:47:36.730Z,99190.47
2022-08-22T01:50:45.291Z,99196.03
2022-08-22T01:53:52.930Z,99191.19
2022-08-22T01:57:01.847Z,99186.44
2022-08-22T02:00:16.563Z,99177.25
2022-08-22T02:03:22.781Z,99190.72
2022-08-22T02:06:37.747Z,99186.44
2022-08-22T02:09:45.477Z,99190.00
2022-08-22T02:12:58.789Z,99182.91
2022-08-22T02:16:06.574Z,99174.91
2022-08-22T02:19:21.692Z,99173.66
2022-08-22T02:22:32.531Z,99173.41
2022-08-22T02:25:36.520Z,99167.69
2022-08-22T02:28:56.560Z,99176.53
2022-08-22T02:32:04.203Z,99181.53
2022-08-22T02:35:09.926Z,99180.91
2022-08-22T02:38:22.499Z,99172.16
2022-08-22T02:41:27.697Z,99178.56
2022-08-22T02:44:36.265Z,99178.66
2022-08-22T02:47:42.619Z,99178.00
2022-08-22T02:50:48.795Z,99184.91
2022-08-22T02:53:55.547Z,99186.91
2022-08-22T02:57:02.364Z,99180.22
2022-08-22T03:00:29.706Z,99184.41
2022-08-22T03:03:39.035Z,99190.06
2022-08-22T03:06:44.854Z,99191.69
2022-08-22T03:09:52.833Z,99192.41
2022-08-22T03:13:01.273Z,99194.44
2022-08-22T03:16:07.819Z,99194.94
2022-08-22T03:19:18.808Z,99197.44
2022-08-22T03:22:26.754Z,99214.53
2022-08-22T03:25:36.945Z,99210.97
2022-08-22T03:28:59.330Z,99215.44
2022-08-22T03:32:20.746Z,99211.53
2022-08-22T03:35:25.996Z,99222.88
2022-08-22T03:38:30.709Z,99215.34
2022-08-22T03:41:49.595Z,99217.84
2022-08-22T03:45:08.555Z,99212.44
2022-08-22T03:48:21.500Z,99213.19
2022-08-22T03:51:31.498Z,99217.91
2022-08-22T03:54:51.752Z,99230.25
2022-08-22T03:58:06.428Z,99236.97
2022-08-22T04:01:29.664Z,99220.28
2022-08-22T04:04:51.086Z,99221.97
2022-08-22T04:08:06.540Z,99226.28
2022-08-22T04:11:28.907Z,99223.41
2022-08-22T04:14:59.717Z,99227.75
2022-08-22T04:18:09.112Z,99222.19
2022-08-22T04:21:35.770Z,99219.69
2022-08-22T04:24:45.111Z,99230.72
2022-08-22T04:27:59.095Z,99233.13
2022-08-22T04:31:06.050Z,99239.09
2022-08-22T04:34:16.478Z,99239.25
2022-08-22T04:37:22.355Z,99250.41
2022-08-22T04:40:28.770Z,99242.94
2022-08-22T04:43:35.733Z,99241.28
2022-08-22T04:46:40.553Z,99239.56
2022-08-22T04:49:49.067Z,99240.59
2022-08-22T04:53:03.352Z,99235.41
2022-08-22T04:56:08.764Z,99237.41
2022-08-22T04:59:12.870Z,99237.06
2022-08-22T05:02:22.884Z,99237.06
2022-08-22T05:05:30.056Z,99242.31
2022-08-22T05:08:34.192Z,99244.13
2022-08-22T05:11:38.198Z,99238.88
2022-08-22T05:14:42.419Z,99237.16
2022-08-22T05:17:46.846Z,99236.47
2022-08-22T05:20:52.173Z,99230.78
2022-08-22T05:23:56.557Z,99240.22
2022-08-22T05:27:01.645Z,99235.31
2022-08-22T05:30:08.193Z,99240.66
2022-08-22T05:33:15.772Z,99232.25
2022-08-22T05:36:22.719Z,99236.44
2022-08-22T05:39:27.976Z,99243.94
2022-08-22T05:42:32.743Z,99243.53
2022-08-22T05:45:36.523Z,99247.56
2022-08-22T05:48:42.231Z,99237.06
2022-08-22T05:51:51.495Z,99241.13
2022-08-22T05:54:57.252Z,99241.47
2022-08-22T05:58:11.634Z,99241.44
2022-08-22T06:01:21.471Z,99236.44
2022-08-22T06:04:27.604Z,99238.75
2022-08-22T06:07:35.393Z,99240.72
2022-08-22T06:10:41.594Z,99232.66
2022-08-22T06:13:48.856Z,99235.88
2022-08-22T06:16:59.790Z,99246.75
2022-08-22T06:20:03.511Z,99237.25
2022-08-22T06:23:09.162Z,99242.47
2022-08-22T06:26:21.206Z,99231.97
2022-08-22T06:29:31.300Z,99235.97
2022-08-22T06:32:47.061Z,99233.03
2022-08-22T06:36:18.401Z,99234.50
2022-08-22T06:39:25.960Z,99232.53
2022-08-22T06:42:31.190Z,99224.91
2022-08-22T06:45:34.111Z,99229.19
2022-08-22T06:48:37.735Z,99224.41
2022-08-22T06:51:41.180Z,99218.22
2022-08-22T06:54:47.508Z,99225.78
2022-08-22T06:57:54.551Z,99226.91
2022-08-22T07:01:11.280Z,99222.97
2022-08-22T07:04:15.927Z,99228.09
2022-08-22T07:07:22.135Z,99220.00
2022-08-22T07:10:27.248Z,99229.75
2022-08-22T07:13:31.468Z,99224.81
2022-08-22T07:16:35.367Z,99220.13
2022-08-22T07:19:39.680Z,99225.03
2022-08-22T07:22:54.081Z,99223.13
2022-08-22T07:26:04.480Z,99220.84
2022-08-22T07:29:11.383Z,99224.84
2022-08-22T07:32:17.620Z,99228.16
2022-08-22T07:35:22.580Z,99233.34
2022-08-22T07:38:32.606Z,99237.97
2022-08-22T07:41:43.668Z,99239.69
2022-08-22T07:44:54.157Z,99238.78
2022-08-22T07:48:02.985Z,99240.63
2022-08-22T07:51:08.285Z,99240.50
2022-08-22T07:54:12.791Z,99242.41
2022-08-22T07:57:28.275Z,99234.22
2022-08-22T08:00:32.535Z,99246.25
2022-08-22T08:03:35.492Z,99234.41
2022-08-22T08:06:38.498Z,99240.94
2022-08-22T08:09:44.538Z,99241.56
2022-08-22T08:13:01.833Z,99237.44
2022-08-22T08:16:07.689Z,99233.72
2022-08-22T08:19:12.690Z,99235.81
2022-08-22T08:22:17.355Z,99243.09
2022-08-22T08:25:21.367Z,99236.25
2022-08-22T08:28:38.189Z,99237.34
2022-08-22T08:31:44.933Z,99234.81
2022-08-22T08:34:48.186Z,99239.00
2022-08-22T08:37:54.290Z,99244.03
2022-08-22T08:41:06.580Z,99239.25
2022-08-22T08:44:19.409Z,99225.16
2022-08-22T08:47:29.234Z,99216.13
2022-08-22T08:50:39.147Z,99243.13
2022-08-22T08:53:59.120Z,99223.22
2022-08-22T08:57:13.520Z,99213.28
2022-08-22T09:00:22.204Z,99217.03
2022-08-22T09:03:48.595Z,99216.28
2022-08-22T09:07:02.864Z,99215.03
2022-08-22T09:10:18.913Z,99216.00
2022-08-22T09:17:13.854Z,99224.47
2022-08-22T09:20:32.616Z,99235.84
2022-08-22T09:24:02.639Z,99244.84
2022-08-22T09:27:13.191Z,99247.84
2022-08-22T09:30:18.178Z,99243.13
2022-08-22T09:33:36.361Z,99238.44
2022-08-22T09:36:48.144Z,99237.88
2022-08-22T09:39:57.264Z,99245.84
2022-08-22T09:43:05.517Z,99244.03
2022-08-22T09:46:12.763Z,99249.53
2022-08-22T09:49:24.026Z,99248.25
2022-08-22T09:52:36.931Z,99249.59
2022-08-22T09:55:44.222Z,99254.94
2022-08-22T09:58:55.645Z,99261.31
2022-08-22T10:02:06.038Z,99262.16
2022-08-22T10:05:13.638Z,99261.66
2022-08-22T10:08:41.400Z,99266.34
2022-08-22T10:11:53.838Z,99264.28
2022-08-22T10:15:06.916Z,99267.78
2022-08-22T10:18:16.044Z,99254.34
2022-08-22T10:21:24.198Z,99257.00
2022-08-22T10:24:32.498Z,99250.75
2022-08-22T10:27:52.826Z,99272.38
2022-08-22T10:31:06.480Z,99267.72
2022-08-22T10:34:11.533Z,99260.56
2022-08-22T10:37:23.875Z,99261.66
2022-08-22T10:40:30.037Z,99267.00
2022-08-22T10:43:39.000Z,99273.81
2022-08-22T10:46:49.546Z,99256.16
2022-08-22T10:49:56.195Z,99266.78
2022-08-22T10:53:16.540Z,99259.56
2022-08-22T10:56:23.143Z,99263.47
2022-08-22T10:59:39.249Z,99266.72
2022-08-22T11:02:57.713Z,99261.94
2022-08-22T11:06:02.959Z,99261.72
2022-08-22T11:09:14.234Z,99261.16
2022-08-22T11:12:23.467Z,99255.75
2022-08-22T11:15:49.845Z,99258.69
2022-08-22T11:19:15.011Z,99249.13
2022-08-22T11:22:27.788Z,99249.97
2022-08-22T11:25:41.237Z,99255.78
2022-08-22T11:29:07.818Z,99247.22
2022-08-22T11:32:19.828Z,99249.09
2022-08-22T11:35:26.112Z,99253.69
2022-08-22T11:38:36.256Z,99255.78
2022-08-22T11:41:43.891Z,99257.88
2022-08-22T11:44:53.094Z,99259.31
2022-08-22T11:48:04.277Z,99253.69
2022-08-22T11:51:15.293Z,99258.91
2022-08-22T11:54:30.950Z,99260.84
2022-08-22T11:57:36.695Z,99265.28
2022-08-22T12:00:49.024Z,99261.91
2022-08-22T12:04:22.653Z,99268.63
2022-08-22T12:07:32.396Z,99259.31
2022-08-22T12:10:37.879Z,99261.78
2022-08-22T12:13:49.312Z,99258.97
2022-08-22T12:17:00.798Z,99274.91
2022-08-22T12:20:18.772Z,99262.09
2022-08-22T12:23:43.246Z,99260.81
2022-08-22T12:26:58.398Z,99257.22
2022-08-22T12:30:14.088Z,99257.88
2022-08-22T12:33:38.578Z,99265.81
2022-08-22T12:36:55.895Z,99266.66
2022-08-22T12:40:14.306Z,99257.44
2022-08-22T12:43:34.112Z,99276.38
2022-08-22T12:46:52.801Z,99280.84
2022-08-22T12:50:04.899Z,99274.50
2022-08-22T12:53:20.197Z,99274.63
2022-08-22T12:56:31.846Z,99268.50
2022-08-22T12:59:38.556Z,99267.59
2022-08-22T13:02:44.965Z,99268.28
2022-08-22T13:05:56.975Z,99264.50
2022-08-22T13:09:03.712Z,99275.84
2022-08-22T13:12:24.499Z,99272.94
2022-08-22T13:15:28.934Z,99282.34
2022-08-22T13:18:35.800Z,99267.72
2022-08-22T13:21:43.915Z,99259.31
2022-08-22T13:24:52.259Z,99281.25
2022-08-22T13:27:59.249Z,99281.84
2022-08-22T13:31:03.265Z,99275.78
2022-08-22T13:34:07.261Z,99288.41
2022-08-22T13:37:15.299Z,99282.81
2022-08-22T13:40:24.413Z,99280.63
2022-08-22T13:43:31.192Z,99289.38
2022-08-22T13:46:35.478Z,99284.34
2022-08-22T13:49:40.768Z,99291.28
2022-08-22T13:52:55.065Z,99290.38
2022-08-22T13:56:02.638Z,99287.25
2022-08-22T13:59:25.304Z,99280.19
2022-08-22T14:02:55.250Z,99294.66
2022-08-22T14:06:32.669Z,99285.19
2022-08-22T14:09:36.216Z,99280.97
2022-08-22T14:12:50.299Z,99283.34
2022-08-22T14:16:00.845Z,99282.34
2022-08-22T14:19:06.242Z,99287.44
2022-08-22T14:22:14.554Z,99281.25
2022-08-22T14:25:21.425Z,99278.41
2022-08-22T14:28:27.518Z,99283.19
2022-08-22T14:31:32.287Z,99280.69
2022-08-22T14:34:40.814Z,99276.16
2022-08-22T14:37:52.223Z,99275.28
2022-08-22T14:41:00.278Z,99272.03
2022-08-22T14:44:05.091Z,99261.00
2022-08-22T14:47:34.449Z,99269.97
2022-08-22T14:50:40.691Z,99269.13
2022-08-22T14:53:48.444Z,99265.53
2022-08-22T14:56:53.102Z,99265.63
2022-08-22T14:59:56.054Z,99270.09
2022-08-22T15:03:17.296Z,99260.47
2022-08-22T15:06:31.676Z,99267.56
2022-08-22T15:09:40.464Z,99258.88
2022-08-22T15:12:48.696Z,99265.06
2022-08-22T15:15:55.818Z,99248.72
2022-08-22T15:19:20.332Z,99250.84
2022-08-22T15:22:25.703Z,99265.72
2022-08-22T15:25:32.677Z,99258.88
2022-08-22T15:28:52.576Z,99255.25
2022-08-22T15:31:57.795Z,99258.75
2022-08-22T15:35:06.337Z,99260.84
2022-08-22T15:38:24.233Z,99266.88
2022-08-22T15:41:40.211Z,99266.31
2022-08-22T15:44:48.082Z,99265.03
2022-08-22T15:47:52.336Z,99277.97
2022-08-22T15:50:59.534Z,99263.16
2022-08-22T15:54:24.471Z,99267.38
2022-08-22T15:57:31.686Z,99277.38
2022-08-22T16:00:43.345Z,99274.47
2022-08-22T16:03:54.399Z,99281.56
2022-08-22T16:07:01.302Z,99274.72
2022-08-22T16:10:07.536Z,99285.31
2022-08-22T16:13:13.456Z,99282.16
2022-08-22T16:16:31.143Z,99279.50
2022-08-22T16:19:34.727Z,99282.84
2022-08-22T16:26:12.520Z,99284.91
2022-08-22T16:29:29.947Z,99292.38
2022-08-22T16:32:38.200Z,99305.03
2022-08-22T16:35:59.694Z,99292.38
2022-08-22T16:39:02.664Z,99301.09
2022-08-22T16:42:28.496Z,99299.41
2022-08-22T16:45:32.844Z,99312.63
2022-08-22T16:48:39.780Z,99309.72
2022-08-22T16:51:57.534Z,99314.09
2022-08-22T16:55:01.220Z,99317.59
2022-08-22T16:58:07.904Z,99315.22
2022-08-22T17:01:15.339Z,99304.41
2022-08-22T17:04:23.372Z,99313.69
2022-08-22T17:07:34.161Z,99313.47
2022-08-22T17:10:58.198Z,99311.03
2022-08-22T17:14:10.928Z,99306.63
2022-08-22T17:17:19.008Z,99308.78
2022-08-22T17:20:28.789Z,99305.84
2022-08-22T17:23:38.396Z,99316.81
2022-08-22T17:26:48.804Z,99311.09
2022-08-22T17:30:00.301Z,99323.44
2022-08-22T17:33:12.334Z,99321.53
2022-08-22T17:36:29.748Z,99319.97
2022-08-22T17:39:42.728Z,99318.25
2022-08-22T17:42:54.568Z,99326.34
2022-08-22T17:46:12.883Z,99329.28
2022-08-22T17:49:24.373Z,99323.50
2022-08-22T17:52:31.340Z,99333.03
2022-08-22T17:55:38.828Z,99330.19
2022-08-22T17:58:48.506Z,99331.47
2022-08-22T18:01:55.600Z,99338.13
2022-08-22T18:05:12.943Z,99335.81
2022-08-22T18:11:52.623Z,99342.22
2022-08-22T18:15:08.111Z,99343.09
2022-08-22T18:18:20.144Z,99340.22
2022-08-22T18:21:27.195Z,99340.09
2022-08-22T18:24:33.684Z,99342.03
2022-08-22T18:27:40.103Z,99338.38
2022-08-22T18:30:52.354Z,99346.50
2022-08-22T18:34:09.303Z,99347.44
2022-08-22T18:37:18.587Z,99351.25
2022-08-22T18:40:33.124Z,99346.19
2022-08-22T18:43:38.010Z,99358.63
2022-08-22T18:46:43.446Z,99351.25
2022-08-22T18:49:55.339Z,99350.19
2022-08-22T18:52:59.876Z,99348.91
2022-08-22T18:56:07.935Z,99350.41
2022-08-22T18:59:19.406Z,99352.28
2022-08-22T19:02:37.731Z,99351.88
2022-08-22T19:05:50.224Z,99355.22
2022-08-22T19:09:07.569Z,99353.81
2022-08-22T19:12:27.962Z,99352.63
2022-08-22T19:15:37.272Z,99360.56
2022-08-22T19:18:49.267Z,99355.28
2022-08-22T19:22:21.595Z,99354.75
2022-08-22T19:25:30.853Z,99360.56
2022-08-22T19:28:37.426Z,99363.19
2022-08-22T19:31:46.537Z,99364.56
2022-08-22T19:35:12.304Z,99363.44
2022-08-22T19:38:36.077Z,99365.22
2022-08-22T19:41:42.814Z,99361.28
2022-08-22T19:44:53.739Z,99367.97
2022-08-22T19:48:04.690Z,99365.75
2022-08-22T19:51:12.833Z,99371.28
2022-08-22T19:54:19.021Z,99373.38
2022-08-22T19:57:28.120Z,99361.84
2022-08-22T20:00:43.311Z,99368.25
2022-08-22T20:03:55.700Z,99368.31
2022-08-22T20:07:03.691Z,99365.84
2022-08-22T20:10:23.952Z,99369.03
2022-08-22T20:13:29.318Z,99366.03
2022-08-22T20:16:48.180Z,99371.28
2022-08-22T20:23:18.399Z,99367.69
2022-08-22T20:26:22.076Z,99373.44
2022-08-22T20:29:31.147Z,99373.31
2022-08-22T20:32:39.438Z,99379.47
2022-08-22T20:35:45.338Z,99377.69
2022-08-22T20:38:56.062Z,99386.16
2022-08-22T20:42:03.315Z,99378.72
2022-08-22T20:45:12.356Z,99378.53
2022-08-22T20:48:15.362Z,99385.25
2022-08-22T20:51:22.398Z,99387.16
2022-08-22T20:54:25.916Z,99389.19
2022-08-22T20:57:29.251Z,99395.72
2022-08-22T21:00:37.952Z,99400.16
2022-08-22T21:03:42.220Z,99394.44
2022-08-22T21:06:46.102Z,99401.19
2022-08-22T21:10:11.950Z,99405.69
2022-08-22T21:13:21.003Z,99406.44
2022-08-22T21:16:31.382Z,99404.28
2022-08-22T21:19:34.636Z,99405.88
2022-08-22T21:22:37.475Z,99406.44
2022-08-22T21:25:56.682Z,99414.53
2022-08-22T21:29:01.999Z,99411.03
2022-08-22T21:32:12.499Z,99417.00
2022-08-22T21:35:23.534Z,99420.75
2022-08-22T21:38:26.895Z,99421.88
2022-08-22T21:41:33.074Z,99424.25
2022-08-22T21:44:37.710Z,99433.50
2022-08-22T21:47:42.990Z,99436.34
2022-08-22T21:50:45.766Z,99442.00
2022-08-22T21:53:48.752Z,99450.28
2022-08-22T21:57:15.519Z,99447.97
2022-08-22T22:00:33.207Z,99451.88
2022-08-22T22:03:40.494Z,99451.28
2022-08-22T22:06:43.343Z,99451.09
2022-08-22T22:09:47.187Z,99453.88
2022-08-22T22:12:58.733Z,99460.41
2022-08-22T22:16:01.593Z,99456.81
2022-08-22T22:19:07.876Z,99471.00
2022-08-22T22:22:10.680Z,99467.81
2022-08-22T22:25:40.187Z,99463.00
2022-08-22T22:28:39.076Z,99470.00
2022-08-22T22:31:41.890Z,99477.84
2022-08-22T22:34:46.084Z,99472.69
2022-08-22T22:37:48.898Z,99482.03
2022-08-22T22:40:51.681Z,99479.41
2022-08-22T22:43:55.808Z,99476.25
2022-08-22T22:46:58.641Z,99477.16
2022-08-22T22:50:02.815Z,99491.56
2022-08-22T22:53:05.822Z,99489.88
2022-08-22T22:56:13.566Z,99491.50
2022-08-22T22:59:16.685Z,99479.31
2022-08-22T23:02:21.143Z,99483.84
2022-08-22T23:05:25.367Z,99489.13
2022-08-22T23:08:28.185Z,99493.97
2022-08-22T23:11:31.754Z,99484.53
2022-08-22T23:14:34.718Z,99483.28
2022-08-22T23:17:37.775Z,99493.38
2022-08-22T23:20:41.940Z,99494.69
2022-08-22T23:23:44.737Z,99487.03
2022-08-22T23:26:47.572Z,99496.09
2022-08-22T23:29:50.483Z,99491.13
2022-08-22T23:32:53.575Z,99500.75
2022-08-22T23:35:59.975Z,99499.78
2022-08-22T23:39:03.192Z,99498.69
2022-08-22T23:42:07.106Z,99510.47
2022-08-22T23:45:10.205Z,99502.50
2022-08-22T23:48:13.048Z,99505.88
2022-08-22T23:51:18.239Z,99510.97
2022-08-22T23:54:26.644Z,99515.34
2022-08-22T23:57:29.834Z,99507.53
